sensor_id;sensor_type;location;lat;lon;timestamp;P1;P2;P0
60816;PMS5003;51921;51.518;-3.188;2023-01-15T00:00:49;3;3;
60816;PMS5003;51921;51.518;-3.188;2023-01-15T00:03:14;4;3;
60816;PMS5003;51921;51.518;-3.188;2023-01-15T00:05:40;3;2;
60816;PMS5003;51921;51.518;-3.188;2023-01-15T00:08:11;4;4;
60816;PMS5003;51921;51.518;-3.188;2023-01-15T00:10:31;4;3;
60816;PMS5003;51921;51.518;-3.188;2023-01-15T00:12:57;4;4;
60816;PMS5003;51921;51.518;-3.188;2023-01-15T00:15:22;3;3;
60816;PMS5003;51921;51.518;-3.188;2023-01-15T00:17:48;3;3;
60816;PMS5003;51921;51.518;-3.188;2023-01-15T00:20:14;6;3;
60816;PMS5003;51921;51.518;-3.188;2023-01-15T00:22:39;5;5;
60816;PMS5003;51921;51.518;-3.188;2023-01-15T00:25:05;5;4;
60816;PMS5003;51921;51.518;-3.188;2023-01-15T00:27:30;2;2;
60816;PMS5003;51921;51.518;-3.188;2023-01-15T00:29:56;4;3;
60816;PMS5003;51921;51.518;-3.188;2023-01-15T00:32:22;5;4;
60816;PMS5003;51921;51.518;-3.188;2023-01-15T00:34:47;4;3;
60816;PMS5003;51921;51.518;-3.188;2023-01-15T00:37:13;4;3;
60816;PMS5003;51921;51.518;-3.188;2023-01-15T00:39:38;8;7;
60816;PMS5003;51921;51.518;-3.188;2023-01-15T00:42:04;7;4;
60816;PMS5003;51921;51.518;-3.188;2023-01-15T00:44:30;4;4;
60816;PMS5003;51921;51.518;-3.188;2023-01-15T00:46:55;1;1;
60816;PMS5003;51921;51.518;-3.188;2023-01-15T00:49:21;6;5;
60816;PMS5003;51921;51.518;-3.188;2023-01-15T00:51:47;3;2;
60816;PMS5003;51921;51.518;-3.188;2023-01-15T00:54:12;2;2;
60816;PMS5003;51921;51.518;-3.188;2023-01-15T00:56:38;3;2;
60816;PMS5003;51921;51.518;-3.188;2023-01-15T00:59:04;1;1;
60816;PMS5003;51921;51.518;-3.188;2023-01-15T01:01:29;3;2;
60816;PMS5003;51921;51.518;-3.188;2023-01-15T01:03:55;2;2;
60816;PMS5003;51921;51.518;-3.188;2023-01-15T01:06:20;4;3;
60816;PMS5003;51921;51.518;-3.188;2023-01-15T01:08:47;6;4;
60816;PMS5003;51921;51.518;-3.188;2023-01-15T01:11:12;1;1;
60816;PMS5003;51921;51.518;-3.188;2023-01-15T01:13:37;2;1;
60816;PMS5003;51921;51.518;-3.188;2023-01-15T01:16:03;1;1;
60816;PMS5003;51921;51.518;-3.188;2023-01-15T01:18:28;2;2;
60816;PMS5003;51921;51.518;-3.188;2023-01-15T01:20:54;4;4;
60816;PMS5003;51921;51.518;-3.188;2023-01-15T01:23:20;4;1;
60816;PMS5003;51921;51.518;-3.188;2023-01-15T01:25:45;2;2;
60816;PMS5003;51921;51.518;-3.188;2023-01-15T01:28:11;5;3;
60816;PMS5003;51921;51.518;-3.188;2023-01-15T01:30:36;2;2;
60816;PMS5003;51921;51.518;-3.188;2023-01-15T01:33:01;1;1;
60816;PMS5003;51921;51.518;-3.188;2023-01-15T01:35:27;3;2;
60816;PMS5003;51921;51.518;-3.188;2023-01-15T01:37:53;2;2;
60816;PMS5003;51921;51.518;-3.188;2023-01-15T01:40:18;2;2;
60816;PMS5003;51921;51.518;-3.188;2023-01-15T01:42:44;2;1;
60816;PMS5003;51921;51.518;-3.188;2023-01-15T01:45:15;4;3;
60816;PMS5003;51921;51.518;-3.188;2023-01-15T01:47:35;1;1;
60816;PMS5003;51921;51.518;-3.188;2023-01-15T01:50:02;3;2;
60816;PMS5003;51921;51.518;-3.188;2023-01-15T01:52:26;4;3;
60816;PMS5003;51921;51.518;-3.188;2023-01-15T01:54:52;3;2;
60816;PMS5003;51921;51.518;-3.188;2023-01-15T01:57:17;4;2;
60816;PMS5003;51921;51.518;-3.188;2023-01-15T01:59:43;3;1;
60816;PMS5003;51921;51.518;-3.188;2023-01-15T02:02:09;2;1;
60816;PMS5003;51921;51.518;-3.188;2023-01-15T02:04:34;2;2;
60816;PMS5003;51921;51.518;-3.188;2023-01-15T02:07:00;3;1;
60816;PMS5003;51921;51.518;-3.188;2023-01-15T02:09:26;4;3;
60816;PMS5003;51921;51.518;-3.188;2023-01-15T02:11:51;2;1;
60816;PMS5003;51921;51.518;-3.188;2023-01-15T02:14:19;2;2;
60816;PMS5003;51921;51.518;-3.188;2023-01-15T02:16:44;2;2;
60816;PMS5003;51921;51.518;-3.188;2023-01-15T02:19:12;2;1;
60816;PMS5003;51921;51.518;-3.188;2023-01-15T02:21:38;0;0;
60816;PMS5003;51921;51.518;-3.188;2023-01-15T02:24:01;1;1;
60816;PMS5003;51921;51.518;-3.188;2023-01-15T02:28:51;2;1;
60816;PMS5003;51921;51.518;-3.188;2023-01-15T02:31:16;2;2;
60816;PMS5003;51921;51.518;-3.188;2023-01-15T02:33:43;1;1;
60816;PMS5003;51921;51.518;-3.188;2023-01-15T02:36:07;2;1;
60816;PMS5003;51921;51.518;-3.188;2023-01-15T02:38:35;1;0;
60816;PMS5003;51921;51.518;-3.188;2023-01-15T02:40:59;1;0;
60816;PMS5003;51921;51.518;-3.188;2023-01-15T02:43:24;4;1;
60816;PMS5003;51921;51.518;-3.188;2023-01-15T02:45:50;1;1;
60816;PMS5003;51921;51.518;-3.188;2023-01-15T02:48:15;2;1;
60816;PMS5003;51921;51.518;-3.188;2023-01-15T02:50:42;3;2;
60816;PMS5003;51921;51.518;-3.188;2023-01-15T02:53:07;5;2;
60816;PMS5003;51921;51.518;-3.188;2023-01-15T02:55:34;2;1;
60816;PMS5003;51921;51.518;-3.188;2023-01-15T02:57:58;2;2;
60816;PMS5003;51921;51.518;-3.188;2023-01-15T03:00:23;3;1;
60816;PMS5003;51921;51.518;-3.188;2023-01-15T03:02:49;1;1;
60816;PMS5003;51921;51.518;-3.188;2023-01-15T03:05:16;3;1;
60816;PMS5003;51921;51.518;-3.188;2023-01-15T03:07:41;1;1;
60816;PMS5003;51921;51.518;-3.188;2023-01-15T03:10:06;2;1;
60816;PMS5003;51921;51.518;-3.188;2023-01-15T03:12:33;3;1;
60816;PMS5003;51921;51.518;-3.188;2023-01-15T03:14:59;2;2;
60816;PMS5003;51921;51.518;-3.188;2023-01-15T03:17:23;1;1;
60816;PMS5003;51921;51.518;-3.188;2023-01-15T03:19:49;2;1;
60816;PMS5003;51921;51.518;-3.188;2023-01-15T03:22:16;3;1;
60816;PMS5003;51921;51.518;-3.188;2023-01-15T03:24:41;2;2;
60816;PMS5003;51921;51.518;-3.188;2023-01-15T03:27:04;2;1;
60816;PMS5003;51921;51.518;-3.188;2023-01-15T03:29:31;2;1;
60816;PMS5003;51921;51.518;-3.188;2023-01-15T03:31:55;1;1;
60816;PMS5003;51921;51.518;-3.188;2023-01-15T03:34:21;2;1;
60816;PMS5003;51921;51.518;-3.188;2023-01-15T03:36:47;3;3;
60816;PMS5003;51921;51.518;-3.188;2023-01-15T03:39:13;2;2;
60816;PMS5003;51921;51.518;-3.188;2023-01-15T03:41:41;3;2;
60816;PMS5003;51921;51.518;-3.188;2023-01-15T03:44:05;3;2;
60816;PMS5003;51921;51.518;-3.188;2023-01-15T03:46:33;3;3;
60816;PMS5003;51921;51.518;-3.188;2023-01-15T03:48:55;2;2;
60816;PMS5003;51921;51.518;-3.188;2023-01-15T03:51:21;4;3;
60816;PMS5003;51921;51.518;-3.188;2023-01-15T03:53:47;3;2;
60816;PMS5003;51921;51.518;-3.188;2023-01-15T03:56:12;4;3;
60816;PMS5003;51921;51.518;-3.188;2023-01-15T03:58:37;4;2;
60816;PMS5003;51921;51.518;-3.188;2023-01-15T04:01:02;3;2;
60816;PMS5003;51921;51.518;-3.188;2023-01-15T04:03:29;3;2;
60816;PMS5003;51921;51.518;-3.188;2023-01-15T04:05:54;3;2;
60816;PMS5003;51921;51.518;-3.188;2023-01-15T04:08:19;1;1;
60816;PMS5003;51921;51.518;-3.188;2023-01-15T04:10:49;1;1;
60816;PMS5003;51921;51.518;-3.188;2023-01-15T04:13:10;2;1;
60816;PMS5003;51921;51.518;-3.188;2023-01-15T04:15:36;3;3;
60816;PMS5003;51921;51.518;-3.188;2023-01-15T04:18:01;2;1;
60816;PMS5003;51921;51.518;-3.188;2023-01-15T04:20:27;2;2;
60816;PMS5003;51921;51.518;-3.188;2023-01-15T04:22:53;1;1;
60816;PMS5003;51921;51.518;-3.188;2023-01-15T04:25:18;3;3;
60816;PMS5003;51921;51.518;-3.188;2023-01-15T04:27:44;4;4;
60816;PMS5003;51921;51.518;-3.188;2023-01-15T04:30:15;3;2;
60816;PMS5003;51921;51.518;-3.188;2023-01-15T04:32:35;1;1;
60816;PMS5003;51921;51.518;-3.188;2023-01-15T04:35:01;4;2;
60816;PMS5003;51921;51.518;-3.188;2023-01-15T04:37:26;3;2;
60816;PMS5003;51921;51.518;-3.188;2023-01-15T04:39:52;4;2;
60816;PMS5003;51921;51.518;-3.188;2023-01-15T04:42:17;3;2;
60816;PMS5003;51921;51.518;-3.188;2023-01-15T04:44:43;2;1;
60816;PMS5003;51921;51.518;-3.188;2023-01-15T04:47:09;5;4;
60816;PMS5003;51921;51.518;-3.188;2023-01-15T04:49:35;3;2;
60816;PMS5003;51921;51.518;-3.188;2023-01-15T04:52:00;5;3;
60816;PMS5003;51921;51.518;-3.188;2023-01-15T04:54:26;3;3;
60816;PMS5003;51921;51.518;-3.188;2023-01-15T04:56:52;4;2;
60816;PMS5003;51921;51.518;-3.188;2023-01-15T04:59:18;4;2;
60816;PMS5003;51921;51.518;-3.188;2023-01-15T05:01:43;5;3;
60816;PMS5003;51921;51.518;-3.188;2023-01-15T05:04:08;2;2;
60816;PMS5003;51921;51.518;-3.188;2023-01-15T05:06:34;3;2;
60816;PMS5003;51921;51.518;-3.188;2023-01-15T05:08:59;2;2;
60816;PMS5003;51921;51.518;-3.188;2023-01-15T05:11:25;4;4;
60816;PMS5003;51921;51.518;-3.188;2023-01-15T05:13:50;3;2;
60816;PMS5003;51921;51.518;-3.188;2023-01-15T05:16:17;2;2;
60816;PMS5003;51921;51.518;-3.188;2023-01-15T05:18:42;5;4;
60816;PMS5003;51921;51.518;-3.188;2023-01-15T05:23:32;6;3;
60816;PMS5003;51921;51.518;-3.188;2023-01-15T05:26:01;4;2;
60816;PMS5003;51921;51.518;-3.188;2023-01-15T05:28:23;2;2;
60816;PMS5003;51921;51.518;-3.188;2023-01-15T05:30:49;6;4;
60816;PMS5003;51921;51.518;-3.188;2023-01-15T05:33:15;5;4;
60816;PMS5003;51921;51.518;-3.188;2023-01-15T05:35:40;5;2;
60816;PMS5003;51921;51.518;-3.188;2023-01-15T05:38:06;1;1;
60816;PMS5003;51921;51.518;-3.188;2023-01-15T05:40:32;4;3;
60816;PMS5003;51921;51.518;-3.188;2023-01-15T05:42:57;2;2;
60816;PMS5003;51921;51.518;-3.188;2023-01-15T05:45:23;2;2;
60816;PMS5003;51921;51.518;-3.188;2023-01-15T05:47:48;1;1;
60816;PMS5003;51921;51.518;-3.188;2023-01-15T05:50:14;2;1;
60816;PMS5003;51921;51.518;-3.188;2023-01-15T05:52:39;3;1;
60816;PMS5003;51921;51.518;-3.188;2023-01-15T05:55:05;3;2;
60816;PMS5003;51921;51.518;-3.188;2023-01-15T05:57:31;1;1;
60816;PMS5003;51921;51.518;-3.188;2023-01-15T05:59:57;2;2;
60816;PMS5003;51921;51.518;-3.188;2023-01-15T06:02:22;2;2;
60816;PMS5003;51921;51.518;-3.188;2023-01-15T06:04:47;1;1;
60816;PMS5003;51921;51.518;-3.188;2023-01-15T06:07:13;1;1;
60816;PMS5003;51921;51.518;-3.188;2023-01-15T06:09:39;3;2;
60816;PMS5003;51921;51.518;-3.188;2023-01-15T06:12:05;3;3;
60816;PMS5003;51921;51.518;-3.188;2023-01-15T06:14:30;5;5;
60816;PMS5003;51921;51.518;-3.188;2023-01-15T06:16:55;4;3;
60816;PMS5003;51921;51.518;-3.188;2023-01-15T06:19:21;6;3;
60816;PMS5003;51921;51.518;-3.188;2023-01-15T06:21:47;5;3;
60816;PMS5003;51921;51.518;-3.188;2023-01-15T06:24:12;3;2;
60816;PMS5003;51921;51.518;-3.188;2023-01-15T06:26:38;3;3;
60816;PMS5003;51921;51.518;-3.188;2023-01-15T06:29:03;3;3;
60816;PMS5003;51921;51.518;-3.188;2023-01-15T06:31:29;4;3;
60816;PMS5003;51921;51.518;-3.188;2023-01-15T06:33:55;7;4;
60816;PMS5003;51921;51.518;-3.188;2023-01-15T06:36:21;5;3;
60816;PMS5003;51921;51.518;-3.188;2023-01-15T06:38:46;3;3;
60816;PMS5003;51921;51.518;-3.188;2023-01-15T06:41:12;2;2;
60816;PMS5003;51921;51.518;-3.188;2023-01-15T06:43:37;2;2;
60816;PMS5003;51921;51.518;-3.188;2023-01-15T06:46:02;3;3;
60816;PMS5003;51921;51.518;-3.188;2023-01-15T06:48:28;3;2;
60816;PMS5003;51921;51.518;-3.188;2023-01-15T06:50:54;3;1;
60816;PMS5003;51921;51.518;-3.188;2023-01-15T06:53:19;2;1;
60816;PMS5003;51921;51.518;-3.188;2023-01-15T06:55:45;2;2;
60816;PMS5003;51921;51.518;-3.188;2023-01-15T06:58:11;3;3;
60816;PMS5003;51921;51.518;-3.188;2023-01-15T07:00:36;5;2;
60816;PMS5003;51921;51.518;-3.188;2023-01-15T07:03:03;2;1;
60816;PMS5003;51921;51.518;-3.188;2023-01-15T07:05:28;2;1;
60816;PMS5003;51921;51.518;-3.188;2023-01-15T07:07:53;1;1;
60816;PMS5003;51921;51.518;-3.188;2023-01-15T07:10:19;2;2;
60816;PMS5003;51921;51.518;-3.188;2023-01-15T07:12:44;4;4;
60816;PMS5003;51921;51.518;-3.188;2023-01-15T07:15:10;1;1;
60816;PMS5003;51921;51.518;-3.188;2023-01-15T07:17:35;2;2;
60816;PMS5003;51921;51.518;-3.188;2023-01-15T07:20:01;4;4;
60816;PMS5003;51921;51.518;-3.188;2023-01-15T07:22:27;2;1;
60816;PMS5003;51921;51.518;-3.188;2023-01-15T07:24:52;2;1;
60816;PMS5003;51921;51.518;-3.188;2023-01-15T07:27:18;3;3;
60816;PMS5003;51921;51.518;-3.188;2023-01-15T07:29:44;4;3;
60816;PMS5003;51921;51.518;-3.188;2023-01-15T07:32:09;1;1;
60816;PMS5003;51921;51.518;-3.188;2023-01-15T07:34:35;3;2;
60816;PMS5003;51921;51.518;-3.188;2023-01-15T07:37:00;3;3;
60816;PMS5003;51921;51.518;-3.188;2023-01-15T07:39:26;6;3;
60816;PMS5003;51921;51.518;-3.188;2023-01-15T07:41:51;5;4;
60816;PMS5003;51921;51.518;-3.188;2023-01-15T07:44:17;3;3;
60816;PMS5003;51921;51.518;-3.188;2023-01-15T07:46:42;7;5;
60816;PMS5003;51921;51.518;-3.188;2023-01-15T07:49:08;9;8;
60816;PMS5003;51921;51.518;-3.188;2023-01-15T07:51:33;12;11;
60816;PMS5003;51921;51.518;-3.188;2023-01-15T07:53:59;22;18;
60816;PMS5003;51921;51.518;-3.188;2023-01-15T07:56:24;13;12;
60816;PMS5003;51921;51.518;-3.188;2023-01-15T07:58:49;13;11;
60816;PMS5003;51921;51.518;-3.188;2023-01-15T08:01:15;9;7;
60816;PMS5003;51921;51.518;-3.188;2023-01-15T08:03:40;9;9;
60816;PMS5003;51921;51.518;-3.188;2023-01-15T08:06:06;7;7;
60816;PMS5003;51921;51.518;-3.188;2023-01-15T08:08:31;7;5;
60816;PMS5003;51921;51.518;-3.188;2023-01-15T08:11:00;4;4;
60816;PMS5003;51921;51.518;-3.188;2023-01-15T08:13:22;5;3;
60816;PMS5003;51921;51.518;-3.188;2023-01-15T08:15:48;3;1;
60816;PMS5003;51921;51.518;-3.188;2023-01-15T08:18:14;9;8;
60816;PMS5003;51921;51.518;-3.188;2023-01-15T08:20:39;5;3;
60816;PMS5003;51921;51.518;-3.188;2023-01-15T08:23:05;8;6;
60816;PMS5003;51921;51.518;-3.188;2023-01-15T08:25:30;14;11;
60816;PMS5003;51921;51.518;-3.188;2023-01-15T08:27:58;10;9;
60816;PMS5003;51921;51.518;-3.188;2023-01-15T08:30:23;4;3;
60816;PMS5003;51921;51.518;-3.188;2023-01-15T08:32:47;4;3;
60816;PMS5003;51921;51.518;-3.188;2023-01-15T08:35:13;2;1;
60816;PMS5003;51921;51.518;-3.188;2023-01-15T08:37:38;6;5;
60816;PMS5003;51921;51.518;-3.188;2023-01-15T08:40:04;4;3;
60816;PMS5003;51921;51.518;-3.188;2023-01-15T08:42:29;4;3;
60816;PMS5003;51921;51.518;-3.188;2023-01-15T08:44:55;4;4;
60816;PMS5003;51921;51.518;-3.188;2023-01-15T08:47:21;4;4;
60816;PMS5003;51921;51.518;-3.188;2023-01-15T08:49:46;7;6;
60816;PMS5003;51921;51.518;-3.188;2023-01-15T08:52:11;4;4;
60816;PMS5003;51921;51.518;-3.188;2023-01-15T08:54:37;5;5;
60816;PMS5003;51921;51.518;-3.188;2023-01-15T08:57:02;2;2;
60816;PMS5003;51921;51.518;-3.188;2023-01-15T08:59:28;6;4;
60816;PMS5003;51921;51.518;-3.188;2023-01-15T09:01:53;6;4;
60816;PMS5003;51921;51.518;-3.188;2023-01-15T09:04:19;4;3;
60816;PMS5003;51921;51.518;-3.188;2023-01-15T09:06:45;4;4;
60816;PMS5003;51921;51.518;-3.188;2023-01-15T09:09:10;4;3;
60816;PMS5003;51921;51.518;-3.188;2023-01-15T09:11:36;4;4;
60816;PMS5003;51921;51.518;-3.188;2023-01-15T09:14:01;3;2;
60816;PMS5003;51921;51.518;-3.188;2023-01-15T09:16:27;4;3;
60816;PMS5003;51921;51.518;-3.188;2023-01-15T09:18:53;2;2;
60816;PMS5003;51921;51.518;-3.188;2023-01-15T09:21:18;3;3;
60816;PMS5003;51921;51.518;-3.188;2023-01-15T09:23:44;5;5;
60816;PMS5003;51921;51.518;-3.188;2023-01-15T09:28:35;4;4;
60816;PMS5003;51921;51.518;-3.188;2023-01-15T09:31:01;4;3;
60816;PMS5003;51921;51.518;-3.188;2023-01-15T09:33:26;3;3;
60816;PMS5003;51921;51.518;-3.188;2023-01-15T09:35:52;4;3;
60816;PMS5003;51921;51.518;-3.188;2023-01-15T09:38:18;7;5;
60816;PMS5003;51921;51.518;-3.188;2023-01-15T09:40:46;4;4;
60816;PMS5003;51921;51.518;-3.188;2023-01-15T09:43:12;5;5;
60816;PMS5003;51921;51.518;-3.188;2023-01-15T09:45:36;5;5;
60816;PMS5003;51921;51.518;-3.188;2023-01-15T09:48:05;8;4;
60816;PMS5003;51921;51.518;-3.188;2023-01-15T09:50:28;5;4;
60816;PMS5003;51921;51.518;-3.188;2023-01-15T09:52:56;6;6;
60816;PMS5003;51921;51.518;-3.188;2023-01-15T09:55:17;7;6;
60816;PMS5003;51921;51.518;-3.188;2023-01-15T09:57:42;6;5;
60816;PMS5003;51921;51.518;-3.188;2023-01-15T10:00:11;10;9;
60816;PMS5003;51921;51.518;-3.188;2023-01-15T10:02:34;9;9;
60816;PMS5003;51921;51.518;-3.188;2023-01-15T10:04:59;8;8;
60816;PMS5003;51921;51.518;-3.188;2023-01-15T10:07:25;7;6;
60816;PMS5003;51921;51.518;-3.188;2023-01-15T10:09:57;10;8;
60816;PMS5003;51921;51.518;-3.188;2023-01-15T10:12:16;5;5;
60816;PMS5003;51921;51.518;-3.188;2023-01-15T10:14:42;5;5;
60816;PMS5003;51921;51.518;-3.188;2023-01-15T10:19:31;10;8;
60816;PMS5003;51921;51.518;-3.188;2023-01-15T10:21:57;6;5;
60816;PMS5003;51921;51.518;-3.188;2023-01-15T10:24:23;8;6;
60816;PMS5003;51921;51.518;-3.188;2023-01-15T10:26:50;19;19;
60816;PMS5003;51921;51.518;-3.188;2023-01-15T10:29:14;14;12;
60816;PMS5003;51921;51.518;-3.188;2023-01-15T10:31:42;8;8;
60816;PMS5003;51921;51.518;-3.188;2023-01-15T10:34:10;11;10;
60816;PMS5003;51921;51.518;-3.188;2023-01-15T10:36:31;4;4;
60816;PMS5003;51921;51.518;-3.188;2023-01-15T10:38:57;7;4;
60816;PMS5003;51921;51.518;-3.188;2023-01-15T10:41:26;5;5;
60816;PMS5003;51921;51.518;-3.188;2023-01-15T10:43:50;6;6;
60816;PMS5003;51921;51.518;-3.188;2023-01-15T10:46:13;4;4;
60816;PMS5003;51921;51.518;-3.188;2023-01-15T10:48:39;2;2;
60816;PMS5003;51921;51.518;-3.188;2023-01-15T10:51:08;4;4;
60816;PMS5003;51921;51.518;-3.188;2023-01-15T10:53:31;3;3;
60816;PMS5003;51921;51.518;-3.188;2023-01-15T10:55:57;3;2;
60816;PMS5003;51921;51.518;-3.188;2023-01-15T10:58:24;2;1;
60816;PMS5003;51921;51.518;-3.188;2023-01-15T11:00:48;3;2;
60816;PMS5003;51921;51.518;-3.188;2023-01-15T11:03:13;4;3;
60816;PMS5003;51921;51.518;-3.188;2023-01-15T11:05:37;5;5;
60816;PMS5003;51921;51.518;-3.188;2023-01-15T11:08:04;3;3;
60816;PMS5003;51921;51.518;-3.188;2023-01-15T11:10:28;3;3;
60816;PMS5003;51921;51.518;-3.188;2023-01-15T11:12:55;5;5;
60816;PMS5003;51921;51.518;-3.188;2023-01-15T11:15:21;10;9;
60816;PMS5003;51921;51.518;-3.188;2023-01-15T11:17:45;4;4;
60816;PMS5003;51921;51.518;-3.188;2023-01-15T11:20:15;4;3;
60816;PMS5003;51921;51.518;-3.188;2023-01-15T11:22:37;7;5;
60816;PMS5003;51921;51.518;-3.188;2023-01-15T11:25:01;6;4;
60816;PMS5003;51921;51.518;-3.188;2023-01-15T11:27:27;3;2;
60816;PMS5003;51921;51.518;-3.188;2023-01-15T11:29:53;10;7;
60816;PMS5003;51921;51.518;-3.188;2023-01-15T11:32:18;7;7;
60816;PMS5003;51921;51.518;-3.188;2023-01-15T11:37:09;8;7;
60816;PMS5003;51921;51.518;-3.188;2023-01-15T11:39:34;8;6;
60816;PMS5003;51921;51.518;-3.188;2023-01-15T11:42:00;5;4;
60816;PMS5003;51921;51.518;-3.188;2023-01-15T11:44:25;7;4;
60816;PMS5003;51921;51.518;-3.188;2023-01-15T11:46:53;5;3;
60816;PMS5003;51921;51.518;-3.188;2023-01-15T11:49:16;5;5;
60816;PMS5003;51921;51.518;-3.188;2023-01-15T11:51:42;5;3;
60816;PMS5003;51921;51.518;-3.188;2023-01-15T11:54:08;3;3;
60816;PMS5003;51921;51.518;-3.188;2023-01-15T11:56:33;6;4;
60816;PMS5003;51921;51.518;-3.188;2023-01-15T11:59:00;5;5;
60816;PMS5003;51921;51.518;-3.188;2023-01-15T12:01:24;4;3;
60816;PMS5003;51921;51.518;-3.188;2023-01-15T12:03:49;6;5;
60816;PMS5003;51921;51.518;-3.188;2023-01-15T12:06:17;5;5;
60816;PMS5003;51921;51.518;-3.188;2023-01-15T12:08:43;2;2;
60816;PMS5003;51921;51.518;-3.188;2023-01-15T12:11:09;5;3;
60816;PMS5003;51921;51.518;-3.188;2023-01-15T12:13:33;3;2;
60816;PMS5003;51921;51.518;-3.188;2023-01-15T12:15:59;2;2;
60816;PMS5003;51921;51.518;-3.188;2023-01-15T12:18:27;2;2;
60816;PMS5003;51921;51.518;-3.188;2023-01-15T12:20:51;4;3;
60816;PMS5003;51921;51.518;-3.188;2023-01-15T12:23:20;4;3;
60816;PMS5003;51921;51.518;-3.188;2023-01-15T12:25:41;1;1;
60816;PMS5003;51921;51.518;-3.188;2023-01-15T12:28:11;2;2;
60816;PMS5003;51921;51.518;-3.188;2023-01-15T12:30:32;2;2;
60816;PMS5003;51921;51.518;-3.188;2023-01-15T12:33:05;5;3;
60816;PMS5003;51921;51.518;-3.188;2023-01-15T12:35:23;4;3;
60816;PMS5003;51921;51.518;-3.188;2023-01-15T12:37:47;4;3;
60816;PMS5003;51921;51.518;-3.188;2023-01-15T12:40:17;5;3;
60816;PMS5003;51921;51.518;-3.188;2023-01-15T12:42:38;3;3;
60816;PMS5003;51921;51.518;-3.188;2023-01-15T12:45:05;4;3;
60816;PMS5003;51921;51.518;-3.188;2023-01-15T12:47:30;5;4;
60816;PMS5003;51921;51.518;-3.188;2023-01-15T12:49:55;5;4;
60816;PMS5003;51921;51.518;-3.188;2023-01-15T12:52:21;6;5;
60816;PMS5003;51921;51.518;-3.188;2023-01-15T12:54:47;4;4;
60816;PMS5003;51921;51.518;-3.188;2023-01-15T12:57:12;5;4;
60816;PMS5003;51921;51.518;-3.188;2023-01-15T12:59:39;8;7;
60816;PMS5003;51921;51.518;-3.188;2023-01-15T13:02:08;6;5;
60816;PMS5003;51921;51.518;-3.188;2023-01-15T13:04:31;8;7;
60816;PMS5003;51921;51.518;-3.188;2023-01-15T13:06:55;19;16;
60816;PMS5003;51921;51.518;-3.188;2023-01-15T13:09:22;12;12;
60816;PMS5003;51921;51.518;-3.188;2023-01-15T13:11:44;16;15;
60816;PMS5003;51921;51.518;-3.188;2023-01-15T13:14:11;4;4;
60816;PMS5003;51921;51.518;-3.188;2023-01-15T13:16:38;8;7;
60816;PMS5003;51921;51.518;-3.188;2023-01-15T13:19:06;9;7;
60816;PMS5003;51921;51.518;-3.188;2023-01-15T13:21:27;6;6;
60816;PMS5003;51921;51.518;-3.188;2023-01-15T13:23:58;8;7;
60816;PMS5003;51921;51.518;-3.188;2023-01-15T13:26:21;8;5;
60816;PMS5003;51921;51.518;-3.188;2023-01-15T13:28:46;8;6;
60816;PMS5003;51921;51.518;-3.188;2023-01-15T13:31:11;6;4;
60816;PMS5003;51921;51.518;-3.188;2023-01-15T13:33:35;3;3;
60816;PMS5003;51921;51.518;-3.188;2023-01-15T13:36:01;5;4;
60816;PMS5003;51921;51.518;-3.188;2023-01-15T13:38:25;2;2;
60816;PMS5003;51921;51.518;-3.188;2023-01-15T13:40:51;3;3;
60816;PMS5003;51921;51.518;-3.188;2023-01-15T13:45:42;2;1;
60816;PMS5003;51921;51.518;-3.188;2023-01-15T13:48:07;3;3;
60816;PMS5003;51921;51.518;-3.188;2023-01-15T13:50:33;4;4;
60816;PMS5003;51921;51.518;-3.188;2023-01-15T13:52:59;4;3;
60816;PMS5003;51921;51.518;-3.188;2023-01-15T13:55:25;8;5;
60816;PMS5003;51921;51.518;-3.188;2023-01-15T13:57:49;7;6;
60816;PMS5003;51921;51.518;-3.188;2023-01-15T14:02:49;8;8;
60816;PMS5003;51921;51.518;-3.188;2023-01-15T14:05:11;7;6;
60816;PMS5003;51921;51.518;-3.188;2023-01-15T14:07:32;5;4;
60816;PMS5003;51921;51.518;-3.188;2023-01-15T14:12:25;5;5;
60816;PMS5003;51921;51.518;-3.188;2023-01-15T14:14:53;5;4;
60816;PMS5003;51921;51.518;-3.188;2023-01-15T14:19:46;4;3;
60816;PMS5003;51921;51.518;-3.188;2023-01-15T14:22:09;3;3;
60816;PMS5003;51921;51.518;-3.188;2023-01-15T14:26:58;4;4;
60816;PMS5003;51921;51.518;-3.188;2023-01-15T14:29:26;3;3;
60816;PMS5003;51921;51.518;-3.188;2023-01-15T14:31:49;1;1;
60816;PMS5003;51921;51.518;-3.188;2023-01-15T14:34:14;3;1;
60816;PMS5003;51921;51.518;-3.188;2023-01-15T14:36:40;0;0;
60816;PMS5003;51921;51.518;-3.188;2023-01-15T14:39:04;1;1;
60816;PMS5003;51921;51.518;-3.188;2023-01-15T14:41:30;1;1;
60816;PMS5003;51921;51.518;-3.188;2023-01-15T14:43:55;0;0;
60816;PMS5003;51921;51.518;-3.188;2023-01-15T14:46:23;1;1;
60816;PMS5003;51921;51.518;-3.188;2023-01-15T14:48:46;1;1;
60816;PMS5003;51921;51.518;-3.188;2023-01-15T14:51:12;4;4;
60816;PMS5003;51921;51.518;-3.188;2023-01-15T14:53:37;10;7;
60816;PMS5003;51921;51.518;-3.188;2023-01-15T14:56:05;3;2;
60816;PMS5003;51921;51.518;-3.188;2023-01-15T14:58:30;1;1;
60816;PMS5003;51921;51.518;-3.188;2023-01-15T15:00:53;3;3;
60816;PMS5003;51921;51.518;-3.188;2023-01-15T15:03:20;3;3;
60816;PMS5003;51921;51.518;-3.188;2023-01-15T15:05:50;3;3;
60816;PMS5003;51921;51.518;-3.188;2023-01-15T15:08:10;7;6;
60816;PMS5003;51921;51.518;-3.188;2023-01-15T15:10:36;7;6;
60816;PMS5003;51921;51.518;-3.188;2023-01-15T15:13:01;7;6;
60816;PMS5003;51921;51.518;-3.188;2023-01-15T15:15:32;8;6;
60816;PMS5003;51921;51.518;-3.188;2023-01-15T15:17:56;7;7;
60816;PMS5003;51921;51.518;-3.188;2023-01-15T15:20:20;2;2;
60816;PMS5003;51921;51.518;-3.188;2023-01-15T15:22:43;9;7;
60816;PMS5003;51921;51.518;-3.188;2023-01-15T15:25:09;6;6;
60816;PMS5003;51921;51.518;-3.188;2023-01-15T15:27:34;6;5;
60816;PMS5003;51921;51.518;-3.188;2023-01-15T15:30:03;5;5;
60816;PMS5003;51921;51.518;-3.188;2023-01-15T15:32:25;8;6;
60816;PMS5003;51921;51.518;-3.188;2023-01-15T15:34:52;13;9;
60816;PMS5003;51921;51.518;-3.188;2023-01-15T15:37:16;10;9;
60816;PMS5003;51921;51.518;-3.188;2023-01-15T15:39:43;13;10;
60816;PMS5003;51921;51.518;-3.188;2023-01-15T15:42:10;15;12;
60816;PMS5003;51921;51.518;-3.188;2023-01-15T15:44:33;11;11;
60816;PMS5003;51921;51.518;-3.188;2023-01-15T15:46:58;16;14;
60816;PMS5003;51921;51.518;-3.188;2023-01-15T15:49:23;13;13;
60816;PMS5003;51921;51.518;-3.188;2023-01-15T15:51:49;9;9;
60816;PMS5003;51921;51.518;-3.188;2023-01-15T15:54:15;9;8;
60816;PMS5003;51921;51.518;-3.188;2023-01-15T15:56:41;9;9;
60816;PMS5003;51921;51.518;-3.188;2023-01-15T15:59:05;11;9;
60816;PMS5003;51921;51.518;-3.188;2023-01-15T16:01:30;6;6;
60816;PMS5003;51921;51.518;-3.188;2023-01-15T16:03:56;6;6;
60816;PMS5003;51921;51.518;-3.188;2023-01-15T16:06:22;11;10;
60816;PMS5003;51921;51.518;-3.188;2023-01-15T16:08:50;9;7;
60816;PMS5003;51921;51.518;-3.188;2023-01-15T16:11:12;11;8;
60816;PMS5003;51921;51.518;-3.188;2023-01-15T16:13:39;9;7;
60816;PMS5003;51921;51.518;-3.188;2023-01-15T16:16:04;8;5;
60816;PMS5003;51921;51.518;-3.188;2023-01-15T16:18:30;9;8;
60816;PMS5003;51921;51.518;-3.188;2023-01-15T16:20:54;8;4;
60816;PMS5003;51921;51.518;-3.188;2023-01-15T16:23:20;9;7;
60816;PMS5003;51921;51.518;-3.188;2023-01-15T16:30:43;11;10;
60816;PMS5003;51921;51.518;-3.188;2023-01-15T16:33:02;7;6;
60816;PMS5003;51921;51.518;-3.188;2023-01-15T16:35:28;10;9;
60816;PMS5003;51921;51.518;-3.188;2023-01-15T16:37:54;9;8;
60816;PMS5003;51921;51.518;-3.188;2023-01-15T16:40:22;7;6;
60816;PMS5003;51921;51.518;-3.188;2023-01-15T16:42:43;11;11;
60816;PMS5003;51921;51.518;-3.188;2023-01-15T16:47:34;11;7;
60816;PMS5003;51921;51.518;-3.188;2023-01-15T16:52:34;7;6;